CPA310 VHHH-ZJHK
Flight info
| Callsign | CPA310 |
|---|---|
| Flight time | N/A |
| Altitude | 32000 |
| Route | PECAN V10 SIKOU/K0865S0920 A202 ISBIG |
| Aircraft | A21N/M-SDE3FGHIRWY/LB1 |
Departure
| Time | N/A |
|---|---|
| Airport | Hong Kong International Airport (VHHH) |
Arrival
| Time | 2026-04-28 13:21 |
|---|---|
| Airport | Haikou Meilan International Airport (ZJHK) |
| Time | Latitude | Longitude | Altitude | Speed | Heading |
|---|---|---|---|---|---|
| 2026-04-28 13:21 | 19.95118 | 110.46790 | 51 ft | 15 kts | 179° |
| 2026-04-28 13:21 | 19.95003 | 110.46790 | 50 ft | 16 kts | 180° |
| 2026-04-28 13:21 | 19.94887 | 110.46791 | 50 ft | 16 kts | 179° |
| 2026-04-28 13:22 | 19.94771 | 110.46792 | 50 ft | 16 kts | 180° |
| 2026-04-28 13:22 | 19.94645 | 110.46792 | 52 ft | 21 kts | 180° |
| 2026-04-28 13:22 | 19.94485 | 110.46793 | 56 ft | 23 kts | 179° |
| 2026-04-28 13:22 | 19.94322 | 110.46793 | 62 ft | 23 kts | 180° |
| 2026-04-28 13:23 | 19.94150 | 110.46793 | 66 ft | 24 kts | 180° |
| 2026-04-28 13:23 | 19.93978 | 110.46794 | 69 ft | 23 kts | 179° |
| 2026-04-28 13:23 | 19.93825 | 110.46794 | 71 ft | 20 kts | 179° |
| 2026-04-28 13:23 | 19.93745 | 110.46766 | 71 ft | 12 kts | 250° |
| 2026-04-28 13:24 | 19.93739 | 110.46671 | 71 ft | 13 kts | 269° |
| 2026-04-28 13:24 | 19.93739 | 110.46533 | 71 ft | 23 kts | 270° |
| 2026-04-28 13:24 | 19.93738 | 110.46350 | 74 ft | 19 kts | 270° |
| 2026-04-28 13:24 | 19.93737 | 110.46207 | 74 ft | 19 kts | 269° |
| 2026-04-28 13:25 | 19.93737 | 110.46069 | 76 ft | 17 kts | 270° |
| 2026-04-28 13:25 | 19.93744 | 110.45991 | 76 ft | 9 kts | 307° |
| 2026-04-28 13:25 | 19.93806 | 110.45974 | 77 ft | 9 kts | 359° |
| 2026-04-28 13:25 | 19.93882 | 110.45963 | 78 ft | 12 kts | 321° |
| 2026-04-28 13:26 | 19.93899 | 110.45814 | 78 ft | 24 kts | 269° |
| 2026-04-28 13:26 | 19.93908 | 110.45715 | 77 ft | 11 kts | 319° |
| 2026-04-28 13:26 | 19.93977 | 110.45702 | 78 ft | 4 kts | 359° |
| 2026-04-28 13:26 | 19.93983 | 110.45702 | 78 ft | 0 kts | 359° |
| 2026-04-28 13:29 | 19.93989 | 110.45938 | 79 ft | 0 kts | 360° |